Time;durP1;ratioP1;P1;durP2;ratioP2;P2;SDS_P1;SDS_P2;PMS_P1;PMS_P2;Temp;Humidity;BMP_temperature;BMP_pressure;BME280_temperature;BME280_humidity;BME280_pressure;Samples;Min_cycle;Max_cycle;Signal;HPM_P1;HPM_P2
2022/07/01 00:02:01;;;;;;;0.10;0.10;;;15.60;99.90;;;;;;6209547;23;20409;-75
2022/07/01 00:04:27;;;;;;;0.17;0.17;;;15.70;99.90;;;;;;6209167;23;20092;-75
2022/07/01 00:06:56;;;;;;;0.20;0.20;;;15.70;99.90;;;;;;6207262;23;20040;-75
2022/07/01 00:09:22;;;;;;;0.10;0.10;;;15.70;99.90;;;;;;6207783;23;20031;-76
2022/07/01 00:11:48;;;;;;;0.10;0.10;;;15.70;99.90;;;;;;6180750;23;20020;-74
2022/07/01 00:14:14;;;;;;;0.10;0.10;;;15.70;99.90;;;;;;6180550;23;20020;-74
2022/07/01 00:16:39;;;;;;;0.20;0.20;;;15.70;99.90;;;;;;6182417;23;20024;-74
2022/07/01 00:19:05;;;;;;;0.10;0.10;;;15.60;99.90;;;;;;6207576;23;20020;-74
2022/07/01 00:21:32;;;;;;;0.20;0.20;;;15.70;99.90;;;;;;6208815;23;20067;-75
2022/07/01 00:23:57;;;;;;;0.10;0.10;;;15.70;99.90;;;;;;6181052;23;20501;-75
2022/07/01 00:26:23;;;;;;;0.20;0.20;;;15.70;99.90;;;;;;6207193;23;20023;-76
2022/07/01 00:28:48;;;;;;;0.20;0.20;;;15.70;99.90;;;;;;6181416;23;20027;-75
2022/07/01 00:31:17;;;;;;;0.10;0.10;;;15.70;99.90;;;;;;6207938;23;20012;-75
2022/07/01 00:33:43;;;;;;;0.10;0.10;;;15.70;99.90;;;;;;6206445;23;20047;-75
2022/07/01 00:36:08;;;;;;;0.20;0.20;;;15.70;99.90;;;;;;6209009;23;20346;-74
2022/07/01 00:38:34;;;;;;;0.20;0.20;;;15.60;99.90;;;;;;6206455;23;20020;-74
2022/07/01 00:41:00;;;;;;;0.20;0.20;;;15.70;99.90;;;;;;6208494;23;20029;-75
2022/07/01 00:43:26;;;;;;;0.10;0.10;;;15.60;99.90;;;;;;6179662;23;20019;-77
2022/07/01 00:45:52;;;;;;;0.20;0.20;;;15.60;99.90;;;;;;6208372;23;20009;-75
2022/07/01 00:48:19;;;;;;;0.20;0.20;;;15.60;99.90;;;;;;6180850;23;20032;-75
2022/07/01 00:50:45;;;;;;;0.20;0.20;;;15.60;99.90;;;;;;6182469;23;20453;-75
2022/07/01 00:53:13;;;;;;;0.20;0.20;;;15.60;99.90;;;;;;6207199;23;20024;-75
2022/07/01 00:55:38;;;;;;;0.20;0.20;;;15.60;99.90;;;;;;6182253;23;20420;-74
2022/07/01 00:58:04;;;;;;;0.20;0.20;;;15.60;99.90;;;;;;6207030;23;20024;-75
2022/07/01 01:00:30;;;;;;;0.20;0.20;;;15.60;99.90;;;;;;6180656;23;20025;-75
2022/07/01 01:02:56;;;;;;;0.10;0.10;;;15.60;99.90;;;;;;6180357;23;20152;-74
2022/07/01 01:05:22;;;;;;;0.20;0.20;;;15.70;99.90;;;;;;6181766;23;20048;-75
2022/07/01 01:07:50;;;;;;;0.10;0.10;;;15.60;99.90;;;;;;6206724;23;20079;-75
2022/07/01 01:10:17;;;;;;;0.17;0.17;;;15.60;99.90;;;;;;6207750;23;20455;-75
2022/07/01 01:12:42;;;;;;;0.10;0.10;;;15.60;99.90;;;;;;6181046;23;20035;-76
2022/07/01 01:15:08;;;;;;;0.10;0.10;;;15.60;99.90;;;;;;6206935;23;20028;-76
2022/07/01 01:17:34;;;;;;;0.20;0.20;;;15.60;99.90;;;;;;6208504;23;20039;-76
2022/07/01 01:20:00;;;;;;;0.10;0.10;;;15.60;99.90;;;;;;6180920;23;20087;-76
2022/07/01 01:22:25;;;;;;;0.20;0.20;;;15.50;99.90;;;;;;6206593;23;20117;-76
2022/07/01 01:24:51;;;;;;;0.20;0.20;;;15.60;99.90;;;;;;6181185;23;20122;-75
2022/07/01 01:27:17;;;;;;;0.20;0.20;;;15.60;99.90;;;;;;6207680;23;20075;-76
2022/07/01 01:29:43;;;;;;;0.20;0.20;;;15.60;99.90;;;;;;6207054;23;20373;-77
2022/07/01 01:32:12;;;;;;;0.20;0.20;;;15.60;99.90;;;;;;6178845;23;20300;-76
2022/07/01 01:34:38;;;;;;;0.17;0.17;;;15.70;99.90;;;;;;6208573;23;20086;-76
2022/07/01 01:37:05;;;;;;;0.17;0.17;;;15.60;99.90;;;;;;6207694;23;20440;-76
2022/07/01 01:39:31;;;;;;;0.17;0.17;;;15.60;99.90;;;;;;6207049;23;20017;-76
2022/07/01 01:41:56;;;;;;;0.20;0.20;;;15.60;99.90;;;;;;6207680;23;20480;-76
2022/07/01 01:44:22;;;;;;;0.10;0.10;;;15.70;99.90;;;;;;6206422;23;20511;-74
2022/07/01 01:46:48;;;;;;;0.10;0.10;;;15.70;99.90;;;;;;6181951;23;20020;-75
2022/07/01 01:49:14;;;;;;;0.20;0.20;;;15.70;99.90;;;;;;6205597;23;20059;-74
2022/07/01 01:51:39;;;;;;;0.10;0.10;;;15.60;99.90;;;;;;6180396;23;20016;-74
2022/07/01 01:54:05;;;;;;;0.20;0.20;;;15.60;99.90;;;;;;6207950;23;20013;-75
2022/07/01 01:56:31;;;;;;;0.20;0.20;;;15.60;99.90;;;;;;6180083;23;20092;-74
2022/07/01 01:58:58;;;;;;;0.20;0.20;;;15.60;99.90;;;;;;6207197;23;20085;-75
2022/07/01 02:01:23;;;;;;;0.10;0.10;;;15.60;99.90;;;;;;6181836;23;20801;-75
2022/07/01 02:03:50;;;;;;;0.17;0.17;;;15.60;99.90;;;;;;6180902;23;20468;-75
2022/07/01 02:06:17;;;;;;;0.10;0.10;;;15.60;99.90;;;;;;6210162;23;20043;-75
2022/07/01 02:08:43;;;;;;;0.20;0.20;;;15.60;99.90;;;;;;6208917;23;20357;-75
2022/07/01 02:11:09;;;;;;;0.20;0.20;;;15.50;99.90;;;;;;6209124;23;20087;-74
2022/07/01 02:13:36;;;;;;;0.10;0.10;;;15.50;99.90;;;;;;6182253;23;20113;-74
2022/07/01 02:16:03;;;;;;;0.20;0.20;;;15.50;99.90;;;;;;6210285;23;20079;-75
2022/07/01 02:18:30;;;;;;;0.20;0.20;;;15.50;99.90;;;;;;6207516;23;20016;-75
2022/07/01 02:20:55;;;;;;;0.20;0.20;;;15.50;99.90;;;;;;6183434;23;20047;-75
2022/07/01 02:23:21;;;;;;;0.10;0.10;;;15.50;99.90;;;;;;6181761;23;20020;-75
2022/07/01 02:25:48;;;;;;;0.20;0.20;;;15.50;99.90;;;;;;6207993;23;20028;-75
2022/07/01 02:28:16;;;;;;;0.10;0.10;;;15.50;99.90;;;;;;6208328;23;20680;-78
2022/07/01 02:30:42;;;;;;;0.20;0.20;;;15.60;99.90;;;;;;6210510;23;20377;-75
2022/07/01 02:33:09;;;;;;;0.10;0.10;;;15.50;99.90;;;;;;6207764;23;20444;-75
2022/07/01 02:35:36;;;;;;;0.15;0.15;;;15.50;99.90;;;;;;6209086;23;20283;-75
2022/07/01 02:38:03;;;;;;;0.20;0.20;;;15.50;99.90;;;;;;6180956;23;20523;-76
2022/07/01 02:40:29;;;;;;;0.20;0.20;;;15.50;99.90;;;;;;6182151;23;20123;-75
2022/07/01 02:42:54;;;;;;;0.10;0.10;;;15.60;99.90;;;;;;6208877;23;20028;-74
2022/07/01 02:45:25;;;;;;;0.20;0.20;;;15.50;99.90;;;;;;6180648;23;20024;-75
2022/07/01 02:47:50;;;;;;;0.10;0.10;;;15.40;99.90;;;;;;6208901;23;20413;-76
2022/07/01 02:50:18;;;;;;;0.20;0.20;;;15.40;99.90;;;;;;6183329;23;20023;-75
2022/07/01 02:52:45;;;;;;;0.20;0.20;;;15.40;99.90;;;;;;6208467;23;20021;-75
2022/07/01 02:55:14;;;;;;;0.10;0.10;;;15.40;99.90;;;;;;6209769;23;20445;-75
2022/07/01 02:57:41;;;;;;;0.10;0.10;;;15.40;99.90;;;;;;6207438;23;20020;-74
2022/07/01 03:00:10;;;;;;;0.20;0.20;;;15.30;99.90;;;;;;6209627;23;20016;-75
2022/07/01 03:02:36;;;;;;;0.10;0.10;;;15.30;99.90;;;;;;6183568;23;20016;-74
2022/07/01 03:05:02;;;;;;;0.10;0.10;;;15.40;99.90;;;;;;6182549;23;20040;-74
2022/07/01 03:07:28;;;;;;;0.15;0.15;;;15.30;99.90;;;;;;6209134;23;20021;-74
2022/07/01 03:09:54;;;;;;;0.10;0.10;;;15.30;99.90;;;;;;6181515;23;20104;-75
2022/07/01 03:12:29;;;;;;;0.10;0.10;;;15.20;99.90;;;;;;6209888;23;20429;-75
2022/07/01 03:14:57;;;;;;;0.13;0.13;;;15.30;99.90;;;;;;6181227;23;20017;-75
2022/07/01 03:17:24;;;;;;;0.20;0.20;;;15.30;99.90;;;;;;6183856;23;20051;-74
2022/07/01 03:19:51;;;;;;;0.20;0.20;;;15.20;99.90;;;;;;6210398;23;20298;-74
2022/07/01 03:22:37;;;;;;;0.10;0.10;;;15.20;99.90;;;;;;6182218;23;20534;-74
2022/07/01 03:25:04;;;;;;;0.10;0.10;;;15.20;99.90;;;;;;6163833;23;20032;-74
2022/07/01 03:27:33;;;;;;;0.10;0.10;;;15.20;99.90;;;;;;6176996;23;20060;-74
2022/07/01 03:29:59;;;;;;;0.20;0.20;;;15.20;99.90;;;;;;6207876;23;20449;-74
2022/07/01 03:32:28;;;;;;;0.10;0.10;;;15.20;99.90;;;;;;6182944;23;20027;-74
2022/07/01 03:34:54;;;;;;;0.20;0.20;;;15.20;99.90;;;;;;6208974;23;20012;-75
2022/07/01 03:37:21;;;;;;;0.20;0.20;;;15.10;99.90;;;;;;6209752;23;20464;-75
2022/07/01 03:39:48;;;;;;;0.20;0.20;;;15.20;99.90;;;;;;6181818;23;20381;-74
2022/07/01 03:42:14;;;;;;;0.17;0.17;;;15.10;99.90;;;;;;6180845;23;20442;-75
2022/07/01 03:44:40;;;;;;;0.10;0.10;;;15.20;99.90;;;;;;6208819;23;20029;-74
2022/07/01 03:47:08;;;;;;;0.20;0.20;;;15.20;99.90;;;;;;6209493;23;20014;-74
2022/07/01 03:49:35;;;;;;;0.20;0.20;;;15.10;99.90;;;;;;6180495;23;20017;-75
2022/07/01 03:52:02;;;;;;;0.10;0.10;;;15.10;99.90;;;;;;6180514;23;20020;-73
2022/07/01 03:54:31;;;;;;;0.17;0.17;;;15.10;99.90;;;;;;6208257;23;20331;-74
2022/07/01 03:57:10;;;;;;;0.17;0.17;;;15.10;99.90;;;;;;6208198;23;20020;-74
2022/07/01 03:59:37;;;;;;;0.20;0.20;;;15.10;99.90;;;;;;6208611;23;20390;-74
2022/07/01 04:02:04;;;;;;;0.10;0.10;;;15.00;99.90;;;;;;6207577;23;20098;-75
2022/07/01 04:04:30;;;;;;;0.20;0.20;;;15.10;99.90;;;;;;6207402;23;20024;-74
2022/07/01 04:06:58;;;;;;;0.15;0.15;;;15.30;99.90;;;;;;6209928;23;20096;-75
2022/07/01 04:09:25;;;;;;;0.10;0.10;;;15.20;99.90;;;;;;6207053;23;20501;-74
2022/07/01 04:11:51;;;;;;;0.20;0.20;;;15.10;99.90;;;;;;6208623;23;20028;-74
2022/07/01 04:14:17;;;;;;;0.10;0.10;;;15.20;99.90;;;;;;6180147;23;20012;-74
2022/07/01 04:16:44;;;;;;;0.10;0.10;;;15.20;99.90;;;;;;6206798;23;20337;-74
2022/07/01 04:19:10;;;;;;;0.10;0.10;;;15.20;99.90;;;;;;6207151;23;20008;-74
2022/07/01 04:24:24;;;;;;;0.13;0.13;;;15.20;99.90;;;;;;6179190;23;20047;-74
2022/07/01 04:26:51;;;;;;;0.13;0.13;;;15.20;99.90;;;;;;6207095;23;20095;-74
2022/07/01 04:29:17;;;;;;;0.13;0.13;;;15.40;99.90;;;;;;6179608;23;20357;-74
2022/07/01 04:31:44;;;;;;;0.20;0.20;;;15.20;99.90;;;;;;6180250;23;20016;-74
2022/07/01 04:34:11;;;;;;;0.20;0.20;;;15.20;99.90;;;;;;6208673;23;20060;-74
2022/07/01 04:36:37;;;;;;;0.20;0.20;;;15.20;99.90;;;;;;6208592;23;20008;-74
2022/07/01 04:39:04;;;;;;;0.13;0.13;;;15.20;99.90;;;;;;6208053;23;20062;-74
2022/07/01 04:44:14;;;;;;;0.20;0.20;;;15.20;99.90;;;;;;6181088;23;20071;-73
2022/07/01 04:46:40;;;;;;;0.20;0.20;;;15.20;99.90;;;;;;6181771;23;20340;-74
2022/07/01 04:49:06;;;;;;;0.20;0.20;;;15.10;99.90;;;;;;6181923;23;20013;-74
2022/07/01 04:51:34;;;;;;;0.20;0.20;;;15.20;99.90;;;;;;6208634;23;20017;-74
2022/07/01 04:54:05;;;;;;;0.10;0.10;;;15.20;99.90;;;;;;6207306;23;20032;-75
2022/07/01 04:56:33;;;;;;;0.20;0.20;;;15.20;99.90;;;;;;6203270;23;20131;-74
2022/07/01 04:59:00;;;;;;;0.20;0.20;;;15.30;99.90;;;;;;6206407;23;20047;-75
2022/07/01 05:01:26;;;;;;;0.10;0.10;;;15.20;99.90;;;;;;6181710;23;20095;-74
2022/07/01 05:03:52;;;;;;;0.10;0.10;;;15.20;99.90;;;;;;6181363;23;20063;-75
2022/07/01 05:06:17;;;;;;;0.20;0.20;;;15.20;99.90;;;;;;6179689;23;20099;-74
2022/07/01 05:08:43;;;;;;;0.10;0.10;;;15.20;99.90;;;;;;6206494;23;20024;-75
2022/07/01 05:11:09;;;;;;;0.20;0.20;;;15.20;99.90;;;;;;6182322;23;20062;-75
2022/07/01 05:13:35;;;;;;;0.20;0.20;;;15.20;99.90;;;;;;6180706;23;20074;-76
2022/07/01 05:16:01;;;;;;;0.13;0.13;;;15.20;99.90;;;;;;6182029;23;20321;-79
2022/07/01 05:23:58;;;;;;;0.20;0.20;;;15.20;99.90;;;;;;6206850;23;20020;-77
2022/07/01 05:26:25;;;;;;;0.20;0.20;;;15.20;99.90;;;;;;6207708;23;20021;-74
2022/07/01 05:28:52;;;;;;;0.20;0.20;;;15.20;99.90;;;;;;6204145;23;20707;-74
2022/07/01 05:31:18;;;;;;;0.20;0.20;;;15.20;99.90;;;;;;6207752;23;20369;-75
2022/07/01 05:33:43;;;;;;;0.17;0.17;;;15.20;99.90;;;;;;6208460;23;20112;-76
2022/07/01 05:36:10;;;;;;;0.10;0.10;;;15.20;99.90;;;;;;6182672;23;20551;-75
2022/07/01 05:38:39;;;;;;;0.20;0.20;;;15.30;99.90;;;;;;6184602;23;20136;-76
2022/07/01 05:41:05;;;;;;;0.20;0.20;;;15.30;99.90;;;;;;6212120;23;20017;-75
2022/07/01 05:43:31;;;;;;;0.15;0.15;;;15.30;99.90;;;;;;6183954;23;20017;-75
2022/07/01 05:45:57;;;;;;;0.10;0.10;;;15.30;99.90;;;;;;6185425;23;20345;-75
2022/07/01 05:48:22;;;;;;;0.20;0.20;;;15.30;99.90;;;;;;6209810;23;20081;-74
2022/07/01 05:50:49;;;;;;;0.20;0.20;;;15.30;99.90;;;;;;6184848;23;20775;-74
2022/07/01 05:53:15;;;;;;;0.20;0.20;;;15.40;99.90;;;;;;6211351;23;20016;-75
2022/07/01 05:55:41;;;;;;;0.20;0.20;;;15.30;99.90;;;;;;6211446;23;20013;-75
2022/07/01 05:58:08;;;;;;;0.15;0.15;;;15.40;99.90;;;;;;6182919;23;20039;-74
2022/07/01 06:00:34;;;;;;;0.13;0.13;;;15.40;99.90;;;;;;6211400;23;20017;-74
2022/07/01 06:03:00;;;;;;;0.15;0.15;;;15.40;99.90;;;;;;6183485;23;20051;-75
2022/07/01 06:05:26;;;;;;;0.20;0.20;;;15.50;99.90;;;;;;6212176;23;20079;-74
2022/07/01 06:07:52;;;;;;;0.20;0.20;;;15.40;99.90;;;;;;6210910;23;20663;-75
2022/07/01 06:10:17;;;;;;;0.20;0.20;;;15.60;99.90;;;;;;6182040;23;20483;-74
2022/07/01 06:12:43;;;;;;;0.10;0.10;;;15.60;99.90;;;;;;6184705;23;20012;-75
2022/07/01 06:15:10;;;;;;;0.20;0.20;;;15.60;99.90;;;;;;6211599;23;20410;-75
2022/07/01 06:17:37;;;;;;;0.13;0.13;;;15.60;99.90;;;;;;6211210;23;20013;-75
2022/07/01 06:20:03;;;;;;;0.10;0.10;;;15.70;99.90;;;;;;6211507;23;20012;-74
2022/07/01 06:22:29;;;;;;;0.15;0.15;;;15.70;99.90;;;;;;6212007;23;20059;-75
2022/07/01 06:24:54;;;;;;;0.17;0.17;;;15.70;99.90;;;;;;6183971;23;20017;-75
2022/07/01 06:27:20;;;;;;;0.20;0.20;;;15.80;99.90;;;;;;6184111;23;20024;-75
2022/07/01 06:29:46;;;;;;;0.20;0.20;;;15.70;99.90;;;;;;6181626;23;20021;-75
2022/07/01 06:32:12;;;;;;;0.20;0.20;;;15.80;99.90;;;;;;6210096;23;20103;-75
2022/07/01 06:34:38;;;;;;;0.10;0.10;;;15.90;99.90;;;;;;6211743;23;20039;-75
2022/07/01 06:37:04;;;;;;;0.17;0.17;;;15.90;99.90;;;;;;6173152;23;20324;-74
2022/07/01 06:39:30;;;;;;;0.10;0.10;;;15.90;99.90;;;;;;6181869;23;20024;-74
2022/07/01 06:41:56;;;;;;;0.20;0.20;;;16.00;99.90;;;;;;6210028;23;20021;-75
2022/07/01 06:44:22;;;;;;;0.10;0.10;;;16.10;99.90;;;;;;6180781;23;20012;-75
2022/07/01 06:46:47;;;;;;;0.20;0.20;;;16.10;99.90;;;;;;6212133;23;20551;-75
2022/07/01 06:49:14;;;;;;;0.10;0.10;;;16.30;99.90;;;;;;6181242;23;20075;-75
2022/07/01 06:51:40;;;;;;;0.20;0.20;;;16.10;99.90;;;;;;6182239;23;20052;-75
2022/07/01 06:54:05;;;;;;;0.20;0.20;;;16.20;99.90;;;;;;6182427;23;20028;-75
2022/07/01 06:56:31;;;;;;;0.20;0.20;;;16.20;99.90;;;;;;6209621;23;20012;-75
2022/07/01 06:58:57;;;;;;;0.20;0.20;;;16.20;99.90;;;;;;6181237;23;20354;-74
2022/07/01 07:01:29;;;;;;;0.20;0.20;;;16.20;99.90;;;;;;6209698;23;20530;-74
2022/07/01 07:03:55;;;;;;;0.10;0.10;;;16.20;99.90;;;;;;6209044;23;20020;-75
2022/07/01 07:06:20;;;;;;;0.20;0.20;;;16.30;99.90;;;;;;6209639;23;20491;-74
2022/07/01 07:08:46;;;;;;;0.20;0.20;;;16.20;99.90;;;;;;6207396;23;20157;-74
2022/07/01 07:11:14;;;;;;;0.20;0.20;;;16.30;99.90;;;;;;6209121;23;20031;-75
2022/07/01 07:13:41;;;;;;;0.20;0.20;;;16.30;99.90;;;;;;6207183;23;20031;-74
2022/07/01 07:16:10;;;;;;;0.10;0.10;;;16.30;99.90;;;;;;6209726;23;20012;-74
2022/07/01 07:18:36;;;;;;;0.20;0.20;;;16.40;99.90;;;;;;6183295;23;20031;-75
2022/07/01 07:21:03;;;;;;;0.10;0.10;;;16.40;99.90;;;;;;6209428;23;20021;-74
2022/07/01 07:23:29;;;;;;;0.10;0.10;;;16.50;99.90;;;;;;6181962;23;20031;-74
2022/07/01 07:25:55;;;;;;;0.10;0.10;;;16.50;99.90;;;;;;6209715;23;20017;-74
2022/07/01 07:28:21;;;;;;;0.10;0.10;;;16.40;99.90;;;;;;6207710;23;20028;-75
2022/07/01 07:30:47;;;;;;;0.20;0.20;;;16.50;99.90;;;;;;6183096;23;20032;-74
2022/07/01 07:33:16;;;;;;;0.20;0.20;;;16.50;99.90;;;;;;6182450;23;20381;-75
2022/07/01 07:35:41;;;;;;;0.20;0.20;;;16.50;99.90;;;;;;6180558;23;20064;-74
2022/07/01 07:38:07;;;;;;;0.20;0.20;;;16.60;99.90;;;;;;6208285;23;20364;-75
2022/07/01 07:40:34;;;;;;;0.20;0.20;;;16.60;99.90;;;;;;6208275;23;20008;-77
2022/07/01 07:43:00;;;;;;;0.10;0.10;;;16.60;99.90;;;;;;6208164;23;20059;-74
2022/07/01 07:45:25;;;;;;;0.10;0.10;;;16.60;99.90;;;;;;6207821;23;20016;-75
2022/07/01 07:47:54;;;;;;;0.13;0.13;;;16.60;99.90;;;;;;6206664;23;20016;-73
2022/07/01 07:50:21;;;;;;;0.20;0.20;;;16.70;99.90;;;;;;6178858;23;20024;-74
2022/07/01 07:52:46;;;;;;;0.10;0.10;;;16.70;99.90;;;;;;6178960;23;20020;-74
2022/07/01 07:55:15;;;;;;;0.10;0.10;;;16.70;99.90;;;;;;6207707;23;20096;-74
2022/07/01 07:57:41;;;;;;;0.20;0.20;;;16.70;99.90;;;;;;6180413;23;20017;-74
2022/07/01 08:00:09;;;;;;;0.17;0.17;;;16.70;99.90;;;;;;6204969;23;20112;-74
2022/07/01 08:02:34;;;;;;;0.20;0.20;;;16.70;99.90;;;;;;6207529;23;20196;-79
2022/07/01 08:05:00;;;;;;;0.20;0.20;;;16.70;99.90;;;;;;6183293;23;20024;-74
2022/07/01 08:07:26;;;;;;;0.10;0.10;;;16.80;99.90;;;;;;6208237;23;20104;-75
2022/07/01 08:09:51;;;;;;;0.10;0.10;;;16.80;99.90;;;;;;6181099;23;20337;-74
2022/07/01 08:12:17;;;;;;;0.20;0.20;;;16.70;99.90;;;;;;6180658;23;20021;-74
2022/07/01 08:14:43;;;;;;;0.13;0.13;;;16.80;99.90;;;;;;6203934;23;20039;-75
2022/07/01 08:17:09;;;;;;;0.10;0.10;;;16.80;99.90;;;;;;6178667;23;20156;-74
2022/07/01 08:19:35;;;;;;;0.20;0.20;;;16.80;99.90;;;;;;6180399;23;20090;-75
2022/07/01 08:22:01;;;;;;;0.10;0.10;;;16.80;99.90;;;;;;6205397;23;20025;-77
2022/07/01 08:24:26;;;;;;;0.10;0.10;;;16.80;99.90;;;;;;6181389;23;20279;-74
2022/07/01 08:26:52;;;;;;;0.10;0.10;;;16.80;99.90;;;;;;6182278;23;20055;-75
2022/07/01 08:29:18;;;;;;;0.15;0.15;;;16.90;99.90;;;;;;6207860;23;20047;-74
2022/07/01 08:31:43;;;;;;;0.10;0.10;;;16.80;99.90;;;;;;6209041;23;20448;-75
2022/07/01 08:34:09;;;;;;;0.10;0.10;;;16.90;99.90;;;;;;6181300;23;20017;-75
2022/07/01 08:36:35;;;;;;;0.10;0.10;;;16.90;99.90;;;;;;6208227;23;20020;-76
2022/07/01 08:39:01;;;;;;;0.10;0.10;;;16.90;99.90;;;;;;6180348;23;20013;-76
2022/07/01 08:41:27;;;;;;;0.10;0.10;;;17.00;99.90;;;;;;6181408;23;20013;-75
2022/07/01 08:43:52;;;;;;;0.20;0.20;;;17.00;99.90;;;;;;6208047;23;20012;-75
2022/07/01 08:46:18;;;;;;;0.10;0.10;;;17.10;99.90;;;;;;6207961;23;20390;-75
2022/07/01 08:48:45;;;;;;;0.13;0.13;;;17.10;99.90;;;;;;6208623;23;20548;-74
2022/07/01 08:51:11;;;;;;;0.17;0.17;;;17.10;99.90;;;;;;6181296;23;20012;-74
2022/07/01 08:53:37;;;;;;;0.10;0.10;;;17.20;99.90;;;;;;6181449;23;20078;-74
2022/07/01 08:58:53;;;;;;;0.20;0.20;;;17.30;99.90;;;;;;6205330;23;20420;-74
2022/07/01 09:01:23;;;;;;;0.20;0.20;;;17.40;99.90;;;;;;6179806;23;20066;-73
2022/07/01 09:03:53;;;;;;;0.10;0.10;;;17.40;99.90;;;;;;6180171;23;20059;-76
2022/07/01 09:06:26;;;;;;;0.20;0.20;;;17.50;99.90;;;;;;6203010;23;20074;-73
2022/07/01 09:08:51;;;;;;;0.20;0.20;;;17.60;99.90;;;;;;6206238;23;20333;-75
2022/07/01 09:11:23;;;;;;;0.15;0.15;;;17.70;99.90;;;;;;6205574;23;20021;-76
2022/07/01 09:14:06;;;;;;;0.10;0.10;;;17.70;99.90;;;;;;6179669;23;20091;-76
2022/07/01 09:16:46;;;;;;;0.10;0.10;;;17.70;99.90;;;;;;6183139;23;20097;-76
2022/07/01 09:19:13;;;;;;;0.13;0.13;;;17.80;99.90;;;;;;6180639;23;20062;-75
2022/07/01 09:21:40;;;;;;;0.10;0.10;;;17.90;99.90;;;;;;6182189;23;20099;-75
2022/07/01 09:24:22;;;;;;;0.15;0.15;;;18.00;99.90;;;;;;6209758;23;20384;-75
2022/07/01 09:27:13;;;;;;;0.20;0.20;;;18.10;99.90;;;;;;6180947;23;20036;-74
2022/07/01 09:29:41;;;;;;;0.10;0.10;;;18.20;99.90;;;;;;6182432;23;20035;-74
2022/07/01 09:32:09;;;;;;;0.10;0.10;;;18.40;99.90;;;;;;6181272;23;20533;-75
2022/07/01 09:34:44;;;;;;;0.10;0.10;;;18.40;99.90;;;;;;6208317;23;20166;-73
2022/07/01 09:37:15;;;;;;;0.20;0.20;;;18.40;99.90;;;;;;6208336;23;20429;-75
2022/07/01 09:39:49;;;;;;;0.20;0.20;;;18.40;99.90;;;;;;6179186;23;20021;-74
2022/07/01 09:42:19;;;;;;;0.20;0.20;;;18.50;99.90;;;;;;6206400;23;20016;-75
2022/07/01 09:44:55;;;;;;;0.20;0.20;;;18.50;99.90;;;;;;6181556;23;20017;-75
2022/07/01 09:47:28;;;;;;;0.17;0.17;;;18.50;99.90;;;;;;6182006;23;20024;-75
2022/07/01 09:49:55;;;;;;;0.20;0.20;;;18.50;99.90;;;;;;6208800;23;20083;-75
2022/07/01 09:52:22;;;;;;;0.10;0.10;;;18.60;99.90;;;;;;6182177;23;20021;-76
2022/07/01 09:54:52;;;;;;;0.20;0.20;;;18.60;99.90;;;;;;6181449;23;20029;-74
2022/07/01 09:57:21;;;;;;;0.20;0.20;;;18.60;99.90;;;;;;6209290;23;20020;-74
2022/07/01 09:59:48;;;;;;;0.13;0.13;;;18.60;99.90;;;;;;6207663;23;20028;-74
2022/07/01 10:02:17;;;;;;;0.20;0.20;;;18.70;99.90;;;;;;6206359;23;20326;-74
2022/07/01 10:04:51;;;;;;;0.20;0.20;;;18.70;99.90;;;;;;6179838;23;20016;-75
2022/07/01 10:07:41;;;;;;;0.20;0.20;;;18.70;99.90;;;;;;6181123;23;20023;-77
2022/07/01 10:10:16;;;;;;;0.20;0.20;;;18.80;99.90;;;;;;6181563;23;20048;-74
2022/07/01 10:12:53;;;;;;;0.10;0.10;;;18.80;99.90;;;;;;6208569;23;20020;-74
2022/07/01 10:15:21;;;;;;;0.10;0.10;;;18.80;99.90;;;;;;6208527;23;20139;-74
2022/07/01 10:17:49;;;;;;;0.10;0.10;;;19.00;99.90;;;;;;6181420;23;20012;-75
2022/07/01 10:20:22;;;;;;;0.10;0.10;;;19.00;99.90;;;;;;6205007;23;20048;-74
2022/07/01 10:22:48;;;;;;;0.10;0.10;;;18.90;99.90;;;;;;6180258;23;20075;-74
2022/07/01 10:25:35;;;;;;;0.10;0.10;;;19.00;99.90;;;;;;6211047;23;20020;-74
2022/07/01 10:28:14;;;;;;;0.10;0.10;;;18.90;99.90;;;;;;6182068;23;20043;-74
2022/07/01 10:31:04;;;;;;;0.20;0.20;;;18.90;99.90;;;;;;6183990;23;20029;-75
2022/07/01 10:33:31;;;;;;;0.20;0.20;;;19.00;99.90;;;;;;6211051;23;20047;-74
2022/07/01 10:36:27;;;;;;;0.20;0.20;;;19.10;99.90;;;;;;6210161;23;20020;-75
2022/07/01 10:39:06;;;;;;;0.10;0.10;;;19.20;99.90;;;;;;6210878;23;20106;-74
2022/07/01 10:41:58;;;;;;;0.10;0.10;;;19.30;99.90;;;;;;6179841;23;20503;-75
2022/07/01 10:44:26;;;;;;;0.20;0.20;;;19.30;99.90;;;;;;6188377;23;20016;-74
2022/07/01 10:47:02;;;;;;;0.10;0.10;;;19.50;99.90;;;;;;6182082;23;20025;-74
2022/07/01 10:49:36;;;;;;;0.20;0.20;;;19.60;99.90;;;;;;6184144;23;20168;-74
2022/07/01 10:52:08;;;;;;;0.20;0.20;;;19.70;99.90;;;;;;6166455;23;20028;-76
2022/07/01 10:54:38;;;;;;;0.20;0.20;;;19.70;99.90;;;;;;6203227;23;20421;-74
2022/07/01 10:57:19;;;;;;;0.10;0.10;;;19.70;99.90;;;;;;6185944;23;20453;-74
2022/07/01 10:59:53;;;;;;;0.20;0.20;;;19.70;99.90;;;;;;6210029;23;20017;-73
2022/07/01 11:02:29;;;;;;;0.20;0.20;;;19.70;99.90;;;;;;6184456;23;20273;-75
2022/07/01 11:05:00;;;;;;;0.10;0.10;;;19.60;99.90;;;;;;6183534;23;20348;-74
2022/07/01 11:07:28;;;;;;;;;;;19.50;99.90;;;;;;6184706;23;20468;-75
2022/07/01 11:09:54;;;;;;;0.10;0.10;;;19.60;99.90;;;;;;6183361;23;19958;-73
2022/07/01 11:12:25;;;;;;;0.10;0.10;;;19.60;99.90;;;;;;6181229;23;20020;-74
2022/07/01 11:14:51;;;;;;;0.20;0.20;;;19.60;99.90;;;;;;6208986;23;20030;-73
2022/07/01 11:17:21;;;;;;;0.20;0.20;;;19.50;99.90;;;;;;6182980;23;20398;-74
2022/07/01 11:19:52;;;;;;;0.13;0.13;;;19.40;99.90;;;;;;6179519;23;20028;-73
2022/07/01 11:22:23;;;;;;;0.20;0.20;;;19.30;99.90;;;;;;6207319;23;20376;-73
2022/07/01 11:24:57;;;;;;;0.10;0.10;;;19.20;99.90;;;;;;6178956;23;20052;-74
2022/07/01 11:27:24;;;;;;;0.17;0.17;;;19.00;99.90;;;;;;6204153;23;20016;-73
2022/07/01 11:29:55;;;;;;;0.20;0.20;;;18.90;99.90;;;;;;6206000;23;20017;-75
2022/07/01 11:32:35;;;;;;;0.10;0.10;;;18.80;99.90;;;;;;6207781;23;20028;-73
2022/07/01 11:35:03;;;;;;;0.10;0.10;;;18.70;99.90;;;;;;6180010;23;20027;-74
2022/07/01 11:40:17;;;;;;;0.20;0.20;;;18.80;99.90;;;;;;6179601;23;20020;-77
2022/07/01 11:42:44;;;;;;;0.20;0.20;;;18.60;99.90;;;;;;6182601;23;20020;-73
2022/07/01 11:45:24;;;;;;;0.20;0.20;;;18.50;99.90;;;;;;6184018;23;20065;-73
2022/07/01 11:47:50;;;;;;;0.17;0.17;;;18.50;99.90;;;;;;6181986;23;20111;-73
2022/07/01 11:50:15;;;;;;;0.13;0.13;;;18.50;99.90;;;;;;6184050;23;20067;-72
2022/07/01 11:52:41;;;;;;;0.13;0.13;;;18.50;99.90;;;;;;6180225;23;20027;-72
2022/07/01 11:55:07;;;;;;;0.20;0.20;;;18.60;99.90;;;;;;6180800;23;20274;-74
2022/07/01 11:57:34;;;;;;;0.20;0.20;;;18.70;99.90;;;;;;6210674;23;20333;-74
2022/07/01 12:00:09;;;;;;;0.20;0.20;;;18.90;99.90;;;;;;6182539;23;20095;-74
2022/07/01 12:02:34;;;;;;;0.10;0.10;;;19.10;99.90;;;;;;6208817;23;20395;-74
2022/07/01 12:05:00;;;;;;;0.10;0.10;;;19.10;99.90;;;;;;6209549;23;20100;-74
2022/07/01 12:07:26;;;;;;;0.17;0.17;;;19.20;99.90;;;;;;6183743;23;20048;-73
2022/07/01 12:09:52;;;;;;;0.13;0.13;;;19.10;99.90;;;;;;6207896;23;20020;-74
2022/07/01 12:12:22;;;;;;;0.20;0.20;;;19.00;99.90;;;;;;6210883;23;20020;-73
2022/07/01 12:14:55;;;;;;;0.20;0.20;;;19.00;99.90;;;;;;6181657;23;20016;-73
2022/07/01 12:17:22;;;;;;;0.17;0.17;;;19.00;99.90;;;;;;6210466;23;20013;-73
2022/07/01 12:19:49;;;;;;;0.20;0.20;;;19.00;99.90;;;;;;6183400;23;20021;-74
2022/07/01 12:22:20;;;;;;;0.17;0.17;;;19.20;99.90;;;;;;6182128;23;20314;-77
2022/07/01 12:24:47;;;;;;;0.15;0.15;;;19.40;99.90;;;;;;6210052;23;20013;-75
2022/07/01 12:27:13;;;;;;;0.20;0.20;;;19.50;99.90;;;;;;6209638;23;20127;-76
2022/07/01 12:29:45;;;;;;;0.10;0.10;;;19.60;99.90;;;;;;6181510;23;20074;-76
2022/07/01 12:32:22;;;;;;;0.20;0.20;;;19.70;99.90;;;;;;6209983;23;20024;-76
2022/07/01 12:34:50;;;;;;;0.20;0.20;;;19.90;99.90;;;;;;6210268;23;20318;-76
2022/07/01 12:37:19;;;;;;;0.20;0.20;;;20.10;99.90;;;;;;6209251;23;20028;-76
2022/07/01 12:39:50;;;;;;;0.10;0.10;;;20.00;99.90;;;;;;6209008;23;20224;-75
2022/07/01 12:42:24;;;;;;;0.20;0.20;;;20.10;99.90;;;;;;6183327;23;20493;-75
2022/07/01 12:44:51;;;;;;;0.20;0.20;;;20.00;99.90;;;;;;6207927;23;20508;-75
2022/07/01 12:47:24;;;;;;;0.20;0.20;;;20.00;99.90;;;;;;6209566;23;20024;-75
2022/07/01 12:49:49;;;;;;;0.10;0.10;;;20.00;99.90;;;;;;6210240;23;20043;-75
2022/07/01 12:52:33;;;;;;;0.20;0.20;;;20.00;99.90;;;;;;6209225;23;20017;-75
2022/07/01 12:54:59;;;;;;;0.20;0.20;;;20.10;99.90;;;;;;6182876;23;20326;-76
2022/07/01 12:57:32;;;;;;;0.20;0.20;;;20.20;99.90;;;;;;6182118;23;20066;-75
2022/07/01 12:59:59;;;;;;;0.20;0.20;;;20.20;99.90;;;;;;6182429;23;20055;-75
2022/07/01 13:02:25;;;;;;;0.20;0.20;;;20.40;99.90;;;;;;6182315;23;20021;-76
2022/07/01 13:04:53;;;;;;;0.20;0.20;;;20.30;99.90;;;;;;6182134;23;20020;-75
2022/07/01 13:07:19;;;;;;;0.20;0.20;;;20.40;99.90;;;;;;6209863;23;20027;-75
2022/07/01 13:09:45;;;;;;;0.20;0.20;;;20.50;99.90;;;;;;6209194;23;20269;-75